createdAt,value
2023-01-29T00:01:18.887Z,27.83
2023-01-29T00:03:45.581Z,26.83
2023-01-29T00:06:12.844Z,26.92
2023-01-29T00:08:39.518Z,27.75
2023-01-29T00:11:06.577Z,27.20
2023-01-29T00:13:34.632Z,27.00
2023-01-29T00:16:01.692Z,25.23
2023-01-29T00:18:29.336Z,26.75
2023-01-29T00:20:56.286Z,26.90
2023-01-29T00:23:23.320Z,25.77
2023-01-29T00:25:49.859Z,29.42
2023-01-29T00:28:16.419Z,28.80
2023-01-29T00:30:45.166Z,30.15
2023-01-29T00:33:13.458Z,28.88
2023-01-29T00:35:40.217Z,27.17
2023-01-29T00:38:06.952Z,27.15
2023-01-29T00:40:56.465Z,28.25
2023-01-29T00:43:41.847Z,27.90
2023-01-29T00:46:08.478Z,27.98
2023-01-29T00:48:35.449Z,28.75
2023-01-29T00:51:02.496Z,29.63
2023-01-29T00:53:29.089Z,27.48
2023-01-29T00:55:55.617Z,28.35
2023-01-29T00:58:34.575Z,28.42
2023-01-29T01:01:11.496Z,29.33
2023-01-29T01:03:46.017Z,28.58
2023-01-29T01:06:13.084Z,29.15
2023-01-29T01:08:58.544Z,27.70
2023-01-29T01:11:25.189Z,26.20
2023-01-29T01:13:51.996Z,28.38
2023-01-29T01:16:19.205Z,28.77
2023-01-29T01:18:45.781Z,27.13
2023-01-29T01:21:12.324Z,27.10
2023-01-29T01:23:39.204Z,27.13
2023-01-29T01:26:08.805Z,27.45
2023-01-29T01:28:35.815Z,27.40
2023-01-29T01:31:12.787Z,26.90
2023-01-29T01:33:39.827Z,27.75
2023-01-29T01:36:09.883Z,29.00
2023-01-29T01:38:44.546Z,27.63
2023-01-29T01:41:18.390Z,26.85
2023-01-29T01:43:49.040Z,27.60
2023-01-29T01:46:16.038Z,27.42
2023-01-29T01:48:43.704Z,26.17
2023-01-29T01:51:10.382Z,27.55
2023-01-29T01:53:39.359Z,26.77
2023-01-29T01:56:08.168Z,26.90
2023-01-29T01:58:39.475Z,28.23
2023-01-29T02:01:07.324Z,26.10
2023-01-29T02:03:59.761Z,26.67
2023-01-29T02:06:44.788Z,26.42
2023-01-29T02:09:36.148Z,26.67
2023-01-29T02:12:04.291Z,24.77
2023-01-29T02:14:32.157Z,25.20
2023-01-29T02:17:00.525Z,26.45
2023-01-29T02:20:02.626Z,25.85
2023-01-29T02:22:47.635Z,25.88
2023-01-29T02:25:33.017Z,24.67
2023-01-29T02:28:11.851Z,25.08
2023-01-29T02:30:41.886Z,25.80
2023-01-29T02:33:22.512Z,24.90
2023-01-29T02:36:09.231Z,24.67
2023-01-29T02:38:35.790Z,25.13
2023-01-29T02:41:05.289Z,25.67
2023-01-29T02:43:41.891Z,27.15
2023-01-29T02:46:08.479Z,26.63
2023-01-29T02:49:04.656Z,26.70
2023-01-29T02:51:50.480Z,26.45
2023-01-29T02:54:33.525Z,27.20
2023-01-29T02:57:04.773Z,27.67
2023-01-29T02:59:38.627Z,28.23
2023-01-29T03:02:08.655Z,27.20
2023-01-29T03:04:42.749Z,29.17
2023-01-29T03:07:37.886Z,28.35
2023-01-29T03:10:09.998Z,27.73
2023-01-29T03:12:39.405Z,27.42
2023-01-29T03:15:11.847Z,27.10
2023-01-29T03:17:56.999Z,27.98
2023-01-29T03:20:26.718Z,29.42
2023-01-29T03:22:58.571Z,29.40
2023-01-29T03:25:45.139Z,28.33
2023-01-29T03:28:31.196Z,27.55
2023-01-29T03:31:17.483Z,27.80
2023-01-29T03:33:49.405Z,26.48
2023-01-29T03:36:40.172Z,26.38
2023-01-29T03:39:08.853Z,26.88
2023-01-29T03:41:38.420Z,27.65
2023-01-29T03:44:25.207Z,27.58
2023-01-29T03:47:04.605Z,29.55
2023-01-29T03:49:50.407Z,27.05
2023-01-29T03:52:20.116Z,26.98
2023-01-29T03:54:52.971Z,28.40
2023-01-29T03:57:34.603Z,26.17
2023-01-29T04:00:07.962Z,26.67
2023-01-29T04:02:42.673Z,27.05
2023-01-29T04:05:12.647Z,29.15
2023-01-29T04:07:40.983Z,27.35
2023-01-29T04:10:13.305Z,28.05
2023-01-29T04:12:44.479Z,27.67
2023-01-29T04:15:13.165Z,29.38
2023-01-29T04:17:41.570Z,28.95
2023-01-29T04:20:09.610Z,27.85
2023-01-29T04:22:37.942Z,30.20
2023-01-29T04:25:08.681Z,31.27
2023-01-29T04:27:54.121Z,29.35
2023-01-29T04:30:29.816Z,29.88
2023-01-29T04:32:59.450Z,30.13
2023-01-29T04:35:26.081Z,29.70
2023-01-29T04:38:08.829Z,30.95
2023-01-29T04:40:38.671Z,28.83
2023-01-29T04:43:09.951Z,29.65
2023-01-29T04:45:55.258Z,30.30
2023-01-29T04:48:26.071Z,30.55
2023-01-29T04:51:11.415Z,29.92
2023-01-29T04:53:44.555Z,30.30
2023-01-29T04:56:21.423Z,31.20
2023-01-29T04:58:51.823Z,31.13
2023-01-29T05:01:19.546Z,30.92
2023-01-29T05:03:49.650Z,30.80
2023-01-29T05:06:17.113Z,31.13
2023-01-29T05:08:44.247Z,32.15
2023-01-29T05:11:11.206Z,32.15
2023-01-29T05:13:39.997Z,32.67
2023-01-29T05:16:06.668Z,31.45
2023-01-29T05:18:33.633Z,31.55
2023-01-29T05:21:02.074Z,32.55
2023-01-29T05:23:28.709Z,33.40
2023-01-29T05:25:56.829Z,33.72
2023-01-29T05:28:23.532Z,34.35
2023-01-29T05:30:52.325Z,33.20
2023-01-29T05:33:26.734Z,32.30
2023-01-29T05:35:53.919Z,31.75
2023-01-29T05:38:20.823Z,33.63
2023-01-29T05:40:47.672Z,32.78
2023-01-29T05:43:24.480Z,33.17
2023-01-29T05:45:54.269Z,32.47
2023-01-29T05:48:20.937Z,32.65
2023-01-29T05:50:47.561Z,32.53
2023-01-29T05:53:14.269Z,33.35
2023-01-29T05:55:43.812Z,33.35
2023-01-29T05:58:10.352Z,31.17
2023-01-29T06:00:36.991Z,32.95
2023-01-29T06:03:03.727Z,31.70
2023-01-29T06:05:30.448Z,31.40
2023-01-29T06:07:57.156Z,32.85
2023-01-29T06:10:23.868Z,32.80
2023-01-29T06:12:50.543Z,32.10
2023-01-29T06:15:17.287Z,33.00
2023-01-29T06:17:43.938Z,33.47
2023-01-29T06:20:10.711Z,31.55
2023-01-29T06:22:37.341Z,34.13
2023-01-29T06:25:04.052Z,31.42
2023-01-29T06:27:30.712Z,30.80
2023-01-29T06:29:57.370Z,31.65
2023-01-29T06:32:24.054Z,31.73
2023-01-29T06:34:50.642Z,32.53
2023-01-29T06:37:17.088Z,33.67
2023-01-29T06:39:43.691Z,33.10
2023-01-29T06:42:11.387Z,35.67
2023-01-29T06:44:38.059Z,34.03
2023-01-29T06:47:04.757Z,33.55
2023-01-29T06:49:31.468Z,33.92
2023-01-29T06:51:58.117Z,34.25
2023-01-29T06:54:24.762Z,34.35
2023-01-29T06:56:52.045Z,34.03
2023-01-29T06:59:18.679Z,33.88
2023-01-29T07:01:45.424Z,36.25
2023-01-29T07:04:12.061Z,33.03
2023-01-29T07:06:38.744Z,34.70
2023-01-29T07:09:05.482Z,34.92
2023-01-29T07:11:34.247Z,36.35
2023-01-29T07:14:00.941Z,35.85
2023-01-29T07:16:27.627Z,35.20
2023-01-29T07:18:54.301Z,33.83
2023-01-29T07:21:21.002Z,32.53
2023-01-29T07:23:47.661Z,33.30
2023-01-29T07:26:14.221Z,31.83
2023-01-29T07:28:41.323Z,34.25
2023-01-29T07:31:08.444Z,33.50
2023-01-29T07:33:35.377Z,32.63
2023-01-29T07:36:01.841Z,32.60
2023-01-29T07:38:29.010Z,32.70
2023-01-29T07:40:55.673Z,32.25
2023-01-29T07:43:25.079Z,31.17
2023-01-29T07:45:52.352Z,32.55
2023-01-29T07:48:19.492Z,31.33
2023-01-29T07:50:46.224Z,32.08
2023-01-29T07:53:14.288Z,30.80
2023-01-29T07:55:41.130Z,31.63
2023-01-29T07:58:07.583Z,32.92
2023-01-29T08:00:34.042Z,31.20
2023-01-29T08:03:04.269Z,31.73
2023-01-29T08:05:30.801Z,30.63
2023-01-29T08:08:06.059Z,31.40
2023-01-29T08:10:33.374Z,30.08
2023-01-29T08:13:00.927Z,32.00
2023-01-29T08:15:27.863Z,30.80
2023-01-29T08:17:58.053Z,30.15
2023-01-29T08:20:25.334Z,30.20
2023-01-29T08:22:58.281Z,29.65
2023-01-29T08:25:25.218Z,29.73
2023-01-29T08:27:51.987Z,28.55
2023-01-29T08:30:18.657Z,30.58
2023-01-29T08:32:45.191Z,30.17
2023-01-29T08:35:11.644Z,30.42
2023-01-29T08:37:38.070Z,30.23
2023-01-29T08:40:04.812Z,29.08
2023-01-29T08:42:31.230Z,30.17
2023-01-29T08:44:57.618Z,30.45
2023-01-29T08:47:24.068Z,29.77
2023-01-29T08:49:50.459Z,30.15
2023-01-29T08:52:16.945Z,29.48
2023-01-29T08:54:43.349Z,30.48
2023-01-29T08:57:09.811Z,29.80
2023-01-29T08:59:36.349Z,29.98
2023-01-29T09:02:02.832Z,28.33
2023-01-29T09:04:29.335Z,27.77
2023-01-29T09:06:55.852Z,28.42
2023-01-29T09:09:22.323Z,33.15
2023-01-29T09:11:50.922Z,29.33
2023-01-29T09:14:17.560Z,27.95
2023-01-29T09:16:44.048Z,33.33
2023-01-29T09:19:10.656Z,30.35
2023-01-29T09:21:37.148Z,26.80
2023-01-29T09:24:03.741Z,28.95
2023-01-29T09:26:30.232Z,27.33
2023-01-29T09:28:56.707Z,27.17
2023-01-29T09:31:26.105Z,29.58
2023-01-29T09:33:52.701Z,28.77
2023-01-29T09:36:19.142Z,29.35
2023-01-29T09:38:45.607Z,30.88
2023-01-29T09:41:21.332Z,31.10
2023-01-29T09:43:49.388Z,28.52
2023-01-29T09:46:19.704Z,28.63
2023-01-29T09:48:46.781Z,27.10
2023-01-29T09:51:21.362Z,29.75
2023-01-29T09:53:52.187Z,28.90
2023-01-29T09:56:22.380Z,27.60
2023-01-29T09:58:48.871Z,28.63
2023-01-29T10:01:21.994Z,27.80
2023-01-29T10:04:06.921Z,27.90
2023-01-29T10:06:43.405Z,28.98
2023-01-29T10:09:13.091Z,26.02
2023-01-29T10:11:45.638Z,25.83
2023-01-29T10:14:17.005Z,28.05
2023-01-29T10:16:46.561Z,26.67
2023-01-29T10:19:28.371Z,24.90
2023-01-29T10:22:01.211Z,26.17
2023-01-29T10:24:38.929Z,25.35
2023-01-29T10:27:15.637Z,24.88
2023-01-29T10:29:43.239Z,23.67
2023-01-29T10:32:14.262Z,23.90
2023-01-29T10:34:40.752Z,23.70
2023-01-29T10:37:16.258Z,25.30
2023-01-29T10:39:42.805Z,22.80
2023-01-29T10:42:28.073Z,25.63
2023-01-29T10:45:02.864Z,23.73
2023-01-29T10:47:30.544Z,22.40
2023-01-29T10:50:17.195Z,25.08
2023-01-29T10:52:57.281Z,23.55
2023-01-29T10:55:42.716Z,22.83
2023-01-29T10:58:09.163Z,22.77
2023-01-29T11:00:39.966Z,23.65
2023-01-29T11:03:27.926Z,22.38
2023-01-29T11:06:11.847Z,23.10
2023-01-29T11:08:42.462Z,21.80
2023-01-29T11:11:13.851Z,24.23
2023-01-29T11:13:54.753Z,23.30
2023-01-29T11:16:21.209Z,22.92
2023-01-29T11:19:01.287Z,23.67
2023-01-29T11:21:28.643Z,22.48
2023-01-29T11:24:05.974Z,22.95
2023-01-29T11:26:34.470Z,22.65
2023-01-29T11:29:00.937Z,22.10
2023-01-29T11:31:37.048Z,21.23
2023-01-29T11:34:24.083Z,21.80
2023-01-29T11:37:00.746Z,21.08
2023-01-29T11:39:28.050Z,23.10
2023-01-29T11:41:58.317Z,22.90
2023-01-29T11:44:29.236Z,21.33
2023-01-29T11:46:56.565Z,22.73
2023-01-29T11:49:29.699Z,21.60
2023-01-29T11:51:57.233Z,23.63
2023-01-29T11:54:26.348Z,22.60
2023-01-29T11:56:53.104Z,22.38
2023-01-29T11:59:38.325Z,23.42
2023-01-29T12:02:12.497Z,23.48
2023-01-29T12:04:39.704Z,21.60
2023-01-29T12:07:11.740Z,22.60
2023-01-29T12:09:39.468Z,22.90
2023-01-29T12:12:16.845Z,24.08
2023-01-29T12:14:44.008Z,24.25
2023-01-29T12:17:21.031Z,24.92
2023-01-29T12:19:59.130Z,24.55
2023-01-29T12:22:28.576Z,24.08
2023-01-29T12:25:08.193Z,25.65
2023-01-29T12:27:46.613Z,24.50
2023-01-29T12:30:17.718Z,25.00
2023-01-29T12:32:55.609Z,24.95
2023-01-29T12:35:33.094Z,25.08
2023-01-29T12:38:00.880Z,26.23
2023-01-29T12:40:29.786Z,26.00
2023-01-29T12:42:58.962Z,24.95
2023-01-29T12:45:27.284Z,25.02
2023-01-29T12:47:55.903Z,25.10
2023-01-29T12:50:22.345Z,25.02
2023-01-29T12:53:07.595Z,26.60
2023-01-29T12:55:42.622Z,25.88
2023-01-29T12:58:15.033Z,25.38
2023-01-29T13:00:46.104Z,27.02
2023-01-29T13:03:31.673Z,27.38
2023-01-29T13:06:10.497Z,24.48
2023-01-29T13:08:41.220Z,26.27
2023-01-29T13:11:15.882Z,24.83
2023-01-29T13:14:07.218Z,26.25
2023-01-29T13:16:42.236Z,25.13
2023-01-29T13:19:20.808Z,26.45
2023-01-29T13:21:47.697Z,26.58
2023-01-29T13:24:25.072Z,26.55
2023-01-29T13:26:51.606Z,26.48
2023-01-29T13:29:22.717Z,27.55
2023-01-29T13:31:50.074Z,25.23
2023-01-29T13:34:22.901Z,26.95
2023-01-29T13:36:54.387Z,25.00
2023-01-29T13:39:28.409Z,25.63
2023-01-29T13:41:55.903Z,26.30
2023-01-29T13:44:22.376Z,25.05
2023-01-29T13:46:58.037Z,26.15
2023-01-29T13:49:27.825Z,27.02
2023-01-29T13:51:59.992Z,26.70
2023-01-29T13:54:29.856Z,26.85
2023-01-29T13:57:01.587Z,25.15
2023-01-29T13:59:47.049Z,23.95
2023-01-29T14:02:23.509Z,24.80
2023-01-29T14:04:52.938Z,25.08
2023-01-29T14:07:40.526Z,22.85
2023-01-29T14:10:14.424Z,23.55
2023-01-29T14:12:44.118Z,22.15
2023-01-29T14:15:21.718Z,21.73
2023-01-29T14:18:06.965Z,21.20
2023-01-29T14:20:46.007Z,20.80
2023-01-29T14:23:24.914Z,21.50
2023-01-29T14:25:51.494Z,20.38
2023-01-29T14:28:23.009Z,19.55
2023-01-29T14:30:49.876Z,20.50
2023-01-29T14:33:41.066Z,18.50
2023-01-29T14:36:15.668Z,17.67
2023-01-29T14:38:51.069Z,17.15
2023-01-29T14:41:18.995Z,18.08
2023-01-29T14:43:45.389Z,18.35
2023-01-29T14:46:35.193Z,17.85
2023-01-29T14:49:02.154Z,17.73
2023-01-29T14:51:34.752Z,17.70
2023-01-29T14:54:19.935Z,16.83
2023-01-29T14:57:07.284Z,18.08
2023-01-29T14:59:38.274Z,16.90
2023-01-29T15:02:33.159Z,16.70
2023-01-29T15:05:05.311Z,17.50
2023-01-29T15:07:37.191Z,18.55
2023-01-29T15:10:23.877Z,17.65
2023-01-29T15:12:55.756Z,17.05
2023-01-29T15:15:36.500Z,17.40
2023-01-29T15:18:15.878Z,16.83
2023-01-29T15:20:43.228Z,16.98
2023-01-29T15:23:29.006Z,15.77
2023-01-29T15:25:57.345Z,17.45
2023-01-29T15:28:23.844Z,17.73
2023-01-29T15:30:55.934Z,17.35
2023-01-29T15:33:22.523Z,17.25
2023-01-29T15:35:51.657Z,16.90
2023-01-29T15:38:21.030Z,18.00
2023-01-29T15:41:04.449Z,18.70
2023-01-29T15:43:31.758Z,17.52
2023-01-29T15:46:00.003Z,16.10
2023-01-29T15:48:38.082Z,17.52
2023-01-29T15:51:08.535Z,16.75
2023-01-29T15:53:36.286Z,16.48
2023-01-29T15:56:02.824Z,16.75
2023-01-29T15:58:31.352Z,17.15
2023-01-29T16:00:58.858Z,17.40
2023-01-29T16:03:26.441Z,17.48
2023-01-29T16:05:53.428Z,17.13
2023-01-29T16:08:21.810Z,17.60
2023-01-29T16:10:51.689Z,17.27
2023-01-29T16:13:22.878Z,18.27
2023-01-29T16:15:55.457Z,17.50
2023-01-29T16:18:28.600Z,18.38
2023-01-29T16:20:56.171Z,17.73
2023-01-29T16:23:24.821Z,17.73
2023-01-29T16:25:51.706Z,18.55
2023-01-29T16:28:19.189Z,19.63
2023-01-29T16:30:45.813Z,19.45
2023-01-29T16:33:13.491Z,19.83
2023-01-29T16:35:40.600Z,18.50
2023-01-29T16:38:15.388Z,19.33
2023-01-29T16:40:56.079Z,18.63
2023-01-29T16:43:28.496Z,19.95
2023-01-29T16:46:05.291Z,19.92
2023-01-29T16:48:33.073Z,19.42
2023-01-29T16:51:13.572Z,20.30
2023-01-29T16:53:40.332Z,19.55
2023-01-29T16:56:07.989Z,19.90
2023-01-29T16:58:34.889Z,19.33
2023-01-29T17:01:03.194Z,19.38
2023-01-29T17:03:31.417Z,19.23
2023-01-29T17:05:57.947Z,20.40
2023-01-29T17:08:26.147Z,20.98
2023-01-29T17:10:52.976Z,20.50
2023-01-29T17:13:24.425Z,21.08
2023-01-29T17:15:50.943Z,20.05
2023-01-29T17:18:22.195Z,22.27
2023-01-29T17:20:49.167Z,21.23
2023-01-29T17:23:15.687Z,20.55
2023-01-29T17:25:42.410Z,22.10
2023-01-29T17:28:10.813Z,22.33
2023-01-29T17:30:40.407Z,22.02
2023-01-29T17:33:17.671Z,23.13
2023-01-29T17:35:44.982Z,23.13
2023-01-29T17:38:24.300Z,25.05
2023-01-29T17:40:58.249Z,24.10
2023-01-29T17:43:24.719Z,24.17
2023-01-29T17:45:51.275Z,24.05
2023-01-29T17:48:22.877Z,24.95
2023-01-29T17:50:51.133Z,24.98
2023-01-29T17:53:17.602Z,26.20
2023-01-29T17:55:44.172Z,24.73
2023-01-29T17:58:19.908Z,26.13
2023-01-29T18:00:46.845Z,27.67
2023-01-29T18:03:13.578Z,27.13
2023-01-29T18:05:42.621Z,26.00
2023-01-29T18:08:20.322Z,26.50
2023-01-29T18:10:47.072Z,25.85
2023-01-29T18:13:13.936Z,25.80
2023-01-29T18:15:40.435Z,25.45
2023-01-29T18:18:07.053Z,26.90
2023-01-29T18:20:38.507Z,26.40
2023-01-29T18:23:06.644Z,25.27
2023-01-29T18:25:33.639Z,25.67
2023-01-29T18:28:00.516Z,25.90
2023-01-29T18:30:27.200Z,26.65
2023-01-29T18:32:54.585Z,25.50
2023-01-29T18:35:21.400Z,25.65
2023-01-29T18:37:47.867Z,25.55
2023-01-29T18:40:17.273Z,25.58
2023-01-29T18:42:44.353Z,23.92
2023-01-29T18:45:11.208Z,26.42
2023-01-29T18:47:37.943Z,26.83
2023-01-29T18:50:04.645Z,26.63
2023-01-29T18:52:31.064Z,25.65
2023-01-29T18:54:57.535Z,26.33
2023-01-29T18:58:33.663Z,25.38
2023-01-29T19:00:10.751Z,27.73
2023-01-29T19:02:37.285Z,25.85
2023-01-29T19:05:04.090Z,26.65
2023-01-29T19:07:30.692Z,26.52
2023-01-29T19:09:57.214Z,26.40
2023-01-29T19:12:23.878Z,26.92
2023-01-29T19:14:50.369Z,25.45
2023-01-29T19:17:17.131Z,26.00
2023-01-29T19:19:43.621Z,26.58
2023-01-29T19:22:10.076Z,25.52
2023-01-29T19:24:38.991Z,26.63
2023-01-29T19:27:06.683Z,27.13
2023-01-29T19:29:33.412Z,25.88
2023-01-29T19:32:02.702Z,27.17
2023-01-29T19:34:29.173Z,26.20
2023-01-29T19:36:55.716Z,25.08
2023-01-29T19:39:22.279Z,26.30
2023-01-29T19:41:48.751Z,26.40
2023-01-29T19:44:15.191Z,26.20
2023-01-29T19:46:41.621Z,26.42
2023-01-29T19:49:10.316Z,26.40
2023-01-29T19:51:36.733Z,27.63
2023-01-29T19:54:04.139Z,26.27
2023-01-29T19:56:30.526Z,27.25
2023-01-29T19:58:57.608Z,28.20
2023-01-29T20:01:29.585Z,26.90
2023-01-29T20:03:56.313Z,26.65
2023-01-29T20:06:24.108Z,28.80
2023-01-29T20:08:50.834Z,27.67
2023-01-29T20:11:18.233Z,26.65
2023-01-29T20:13:46.620Z,28.27
2023-01-29T20:16:13.313Z,28.05
2023-01-29T20:18:39.779Z,27.65
2023-01-29T20:21:10.607Z,27.65
2023-01-29T20:23:39.867Z,27.52
2023-01-29T20:26:08.120Z,26.98
2023-01-29T20:28:35.031Z,27.52
2023-01-29T20:31:01.940Z,28.45
2023-01-29T20:33:29.060Z,30.92
2023-01-29T20:35:56.624Z,29.48
2023-01-29T20:38:23.633Z,26.85
2023-01-29T20:40:50.301Z,28.00
2023-01-29T20:43:17.482Z,28.80
2023-01-29T20:45:43.924Z,28.23
2023-01-29T20:48:10.440Z,28.38
2023-01-29T20:50:36.827Z,27.75
2023-01-29T20:53:03.440Z,29.05
2023-01-29T20:55:30.294Z,28.75
2023-01-29T20:58:05.184Z,29.92
2023-01-29T21:00:33.146Z,28.42
2023-01-29T21:02:59.575Z,29.75
2023-01-29T21:05:26.049Z,29.20
2023-01-29T21:07:52.513Z,29.15
2023-01-29T21:10:19.225Z,30.20
2023-01-29T21:12:45.906Z,29.17
2023-01-29T21:15:12.383Z,29.20
2023-01-29T21:17:38.900Z,31.42
2023-01-29T21:20:07.477Z,28.35
2023-01-29T21:22:33.989Z,29.17
2023-01-29T21:25:00.417Z,29.33
2023-01-29T21:27:26.959Z,29.20
2023-01-29T21:29:53.459Z,28.77
2023-01-29T21:32:20.139Z,31.48
2023-01-29T21:34:46.673Z,31.83
2023-01-29T21:37:13.146Z,30.13
2023-01-29T21:39:39.600Z,30.60
2023-01-29T21:42:24.933Z,30.08
2023-01-29T21:44:51.436Z,31.42
2023-01-29T21:47:17.847Z,30.10
2023-01-29T21:49:44.589Z,32.00
2023-01-29T21:52:12.215Z,30.67
2023-01-29T21:54:40.079Z,30.75
2023-01-29T21:57:08.653Z,31.00
2023-01-29T21:59:35.171Z,34.03
2023-01-29T22:02:01.878Z,31.63
2023-01-29T22:04:28.583Z,30.27
2023-01-29T22:06:55.543Z,32.38
2023-01-29T22:09:22.365Z,32.50
2023-01-29T22:11:49.013Z,32.28
2023-01-29T22:14:18.341Z,32.50
2023-01-29T22:16:45.460Z,30.85
2023-01-29T22:19:12.731Z,32.97
2023-01-29T22:21:39.613Z,32.95
2023-01-29T22:24:06.532Z,32.47
2023-01-29T22:26:33.244Z,33.90
2023-01-29T22:28:59.699Z,33.40
2023-01-29T22:31:26.163Z,32.97
2023-01-29T22:33:53.374Z,32.90
2023-01-29T22:36:20.651Z,35.03
2023-01-29T22:38:47.079Z,32.75
2023-01-29T22:41:13.699Z,33.28
2023-01-29T22:43:41.069Z,34.50
2023-01-29T22:46:08.313Z,36.30
2023-01-29T22:48:35.118Z,33.47
2023-01-29T22:51:10.896Z,32.97
2023-01-29T22:53:38.617Z,34.72
2023-01-29T22:56:05.800Z,34.88
2023-01-29T22:58:32.516Z,35.47
2023-01-29T23:00:58.955Z,34.78
2023-01-29T23:03:25.413Z,33.20
2023-01-29T23:05:52.097Z,34.45
2023-01-29T23:08:18.642Z,34.90
2023-01-29T23:10:45.628Z,34.47
2023-01-29T23:13:12.078Z,35.55
2023-01-29T23:15:38.591Z,35.78
2023-01-29T23:18:05.235Z,35.13
2023-01-29T23:20:31.647Z,34.47
2023-01-29T23:22:58.247Z,34.72
2023-01-29T23:25:47.566Z,32.88
2023-01-29T23:28:14.300Z,33.92
2023-01-29T23:30:40.815Z,34.47
2023-01-29T23:33:07.558Z,34.30
2023-01-29T23:35:34.048Z,34.20
2023-01-29T23:38:00.529Z,33.97
2023-01-29T23:40:26.969Z,33.25
2023-01-29T23:42:53.370Z,33.38
2023-01-29T23:45:19.821Z,32.85
2023-01-29T23:47:46.295Z,33.30
2023-01-29T23:50:12.855Z,34.78
2023-01-29T23:52:39.273Z,33.92
2023-01-29T23:55:06.080Z,35.83
2023-01-29T23:57:32.563Z,32.65
2023-01-29T23:59:59.020Z,34.67
